Time;durP1;ratioP1;P1;durP2;ratioP2;P2;SDS_P1;SDS_P2;PMS_P1;PMS_P2;Temp;Humidity;BMP_temperature;BMP_pressure;BME280_temperature;BME280_humidity;BME280_pressure;Samples;Min_cycle;Max_cycle;Signal;HPM_P1;HPM_P2
2023/06/27 00:01:21;;;;;;;11.52;5.30;;;;;;;21.88;95.62;99552.66;4979356;28;20077;-65
2023/06/27 00:03:51;;;;;;;10.85;6.30;;;;;;;21.95;97.11;99560.59;4978187;28;20141;-65
2023/06/27 00:06:19;;;;;;;8.57;5.82;;;;;;;21.98;96.11;99554.72;4979079;28;20050;-65
2023/06/27 00:08:46;;;;;;;6.75;5.15;;;;;;;22.06;95.92;99564.34;4971733;28;20058;-67
2023/06/27 00:11:11;;;;;;;9.50;5.25;;;;;;;22.03;94.85;99573.72;4979156;28;20065;-67
2023/06/27 00:13:40;;;;;;;14.18;6.43;;;;;;;21.86;96.35;99573.66;4978758;28;20336;-67
2023/06/27 00:16:06;;;;;;;16.92;7.22;;;;;;;21.56;98.78;99570.31;4978709;28;20026;-65
2023/06/27 00:18:34;;;;;;;10.38;7.53;;;;;;;21.43;99.83;99568.69;4978276;28;20034;-65
2023/06/27 00:21:00;;;;;;;13.15;7.63;;;;;;;21.64;98.66;99573.44;4978133;28;20238;-67
2023/06/27 00:23:33;;;;;;;16.40;9.75;;;;;;;21.72;98.38;99571.44;4986042;28;20038;-66
2023/06/27 00:25:59;;;;;;;14.30;8.20;;;;;;;21.81;97.98;99565.44;4976540;28;20047;-66
2023/06/27 00:28:24;;;;;;;12.85;8.25;;;;;;;21.89;97.43;99564.25;4977466;28;20031;-65
2023/06/27 00:30:50;;;;;;;14.75;8.93;;;;;;;22.02;96.85;99572.06;4978035;28;20049;-65
2023/06/27 00:33:15;;;;;;;13.30;7.97;;;;;;;22.12;95.86;99574.97;4977119;28;20034;-67
2023/06/27 00:35:41;;;;;;;16.60;8.73;;;;;;;22.09;95.32;99572.75;4962708;28;20054;-67
2023/06/27 00:38:06;;;;;;;13.20;8.40;;;;;;;22.22;95.31;99577.03;4972203;28;20050;-65
2023/06/27 00:40:32;;;;;;;12.07;7.47;;;;;;;22.29;94.74;99573.13;4961430;28;20027;-65
2023/06/27 00:42:57;;;;;;;14.00;7.85;;;;;;;22.38;94.12;99578.13;4964305;28;20051;-65
2023/06/27 00:45:23;;;;;;;14.70;9.10;;;;;;;22.35;94.39;99559.75;4962764;28;20399;-67
2023/06/27 00:47:53;;;;;;;16.13;8.40;;;;;;;22.39;94.21;99564.41;4961678;28;20801;-65
2023/06/27 00:50:22;;;;;;;16.80;9.50;;;;;;;22.37;94.91;99563.00;4962378;28;20038;-67
2023/06/27 00:52:48;;;;;;;18.35;10.68;;;;;;;22.44;94.73;99566.38;4965690;28;20055;-67
2023/06/27 00:55:14;;;;;;;17.00;10.45;;;;;;;22.50;94.15;99562.69;4962248;28;20039;-67
2023/06/27 00:57:40;;;;;;;20.40;9.20;;;;;;;22.44;92.81;99569.06;4968812;28;20054;-67
2023/06/27 01:00:11;;;;;;;14.95;8.23;;;;;;;22.36;91.81;99566.78;4972266;28;20053;-67
2023/06/27 01:02:36;;;;;;;12.18;8.38;;;;;;;21.99;92.72;99559.06;4977851;28;20042;-65
2023/06/27 01:05:02;;;;;;;11.00;8.68;;;;;;;21.98;92.15;99565.50;4978105;28;20057;-67
2023/06/27 01:07:58;;;;;;;10.68;7.93;;;;;;;21.96;92.73;99563.06;4974517;28;20077;-65
2023/06/27 01:10:52;;;;;;;12.48;8.45;;;;;;;22.05;93.08;99560.00;4971282;28;20043;-67
2023/06/27 01:13:23;;;;;;;15.27;8.38;;;;;;;22.09;92.14;99561.16;4978485;28;20045;-67
2023/06/27 01:15:49;;;;;;;16.58;9.65;;;;;;;22.07;93.22;99564.09;4978192;28;20050;-66
2023/06/27 01:18:15;;;;;;;15.38;9.43;;;;;;;22.16;94.04;99562.66;4977561;28;20029;-66
2023/06/27 01:20:43;;;;;;;12.70;9.30;;;;;;;22.24;93.10;99570.34;4977752;28;20109;-65
2023/06/27 01:23:21;;;;;;;16.15;9.32;;;;;;;22.29;92.46;99562.34;4977486;28;20031;-65
2023/06/27 01:25:49;;;;;;;19.20;9.90;;;;;;;22.18;93.20;99559.72;4977613;28;20042;-65
2023/06/27 01:28:14;;;;;;;16.50;10.77;;;;;;;22.20;94.06;99566.50;4977542;28;20041;-67
2023/06/27 01:30:41;;;;;;;15.50;8.80;;;;;;;22.28;92.85;99565.28;4977932;28;20340;-65
2023/06/27 01:33:46;;;;;;;13.05;8.85;;;;;;;22.32;89.19;99562.94;4977608;28;20038;-65
2023/06/27 01:36:26;;;;;;;11.80;8.75;;;;;;;22.34;89.12;99574.28;4968387;28;20595;-67
2023/06/27 01:39:27;;;;;;;17.33;9.52;;;;;;;22.34;89.24;99563.50;4981295;28;20046;-67
2023/06/27 01:41:58;;;;;;;11.48;7.57;;;;;;;22.28;87.64;99565.28;4962664;28;20050;-65
2023/06/27 01:44:26;;;;;;;11.38;7.82;;;;;;;22.27;86.88;99569.06;4980430;28;20102;-67
2023/06/27 01:46:52;;;;;;;11.88;7.43;;;;;;;22.23;86.67;99560.63;4980898;28;20428;-65
2023/06/27 01:49:18;;;;;;;12.45;8.30;;;;;;;22.24;86.84;99564.13;4980848;28;20137;-67
2023/06/27 01:51:44;;;;;;;14.45;9.85;;;;;;;22.29;89.10;99564.22;4981335;28;20047;-67
2023/06/27 01:54:09;;;;;;;17.25;10.38;;;;;;;22.31;90.04;99562.09;4965312;28;20039;-65
2023/06/27 01:56:35;;;;;;;13.65;9.13;;;;;;;22.33;90.97;99557.28;4967702;28;20340;-65
2023/06/27 01:59:01;;;;;;;15.13;9.75;;;;;;;22.23;91.72;99549.00;4964515;28;20031;-67
2023/06/27 02:01:27;;;;;;;14.35;9.15;;;;;;;22.21;91.63;99561.94;4965206;28;20047;-67
2023/06/27 02:03:52;;;;;;;14.20;10.13;;;;;;;22.07;91.31;99560.59;4965640;28;20034;-67
2023/06/27 02:06:18;;;;;;;13.68;9.15;;;;;;;22.11;90.02;99557.16;4964288;28;20250;-65
2023/06/27 02:08:44;;;;;;;13.23;9.00;;;;;;;22.08;88.70;99560.34;4966451;28;20263;-67
2023/06/27 02:11:09;;;;;;;14.00;8.57;;;;;;;21.99;89.32;99565.28;4966941;28;20031;-67
2023/06/27 02:13:37;;;;;;;20.48;8.50;;;;;;;21.91;88.94;99562.97;4965066;28;20035;-65
2023/06/27 02:16:02;;;;;;;16.75;9.52;;;;;;;21.92;89.26;99570.00;4964195;28;20042;-67
2023/06/27 02:18:28;;;;;;;17.17;9.18;;;;;;;21.95;90.93;99572.22;4967262;28;20043;-65
2023/06/27 02:20:53;;;;;;;15.88;8.68;;;;;;;21.98;90.98;99571.72;4962940;28;20047;-67
2023/06/27 02:23:18;;;;;;;13.52;8.60;;;;;;;22.01;91.02;99570.44;4962372;28;20038;-65
2023/06/27 02:25:44;;;;;;;12.50;9.05;;;;;;;21.95;91.96;99564.13;4963953;28;20042;-67
2023/06/27 02:28:09;;;;;;;13.30;9.57;;;;;;;21.97;92.49;99567.41;4964293;28;20206;-66
2023/06/27 02:30:35;;;;;;;15.60;8.80;;;;;;;21.93;93.00;99578.91;4962426;28;20051;-67
2023/06/27 02:33:00;;;;;;;12.98;9.02;;;;;;;21.88;91.94;99573.41;4964628;28;20039;-65
2023/06/27 02:35:26;;;;;;;12.63;8.20;;;;;;;21.80;91.06;99577.25;4963384;28;20213;-67
2023/06/27 02:37:51;;;;;;;14.15;9.10;;;;;;;21.82;90.54;99582.41;4967283;28;20339;-67
2023/06/27 02:40:17;;;;;;;12.60;8.98;;;;;;;21.81;90.24;99580.78;4971564;28;20042;-66
2023/06/27 02:42:42;;;;;;;13.98;9.18;;;;;;;21.80;91.06;99595.31;4964689;28;20035;-65
2023/06/27 02:45:08;;;;;;;14.20;9.05;;;;;;;21.80;91.37;99584.53;4962579;28;20043;-65
2023/06/27 02:47:34;;;;;;;15.07;8.60;;;;;;;21.83;90.73;99587.56;4962631;28;20038;-65
2023/06/27 02:49:59;;;;;;;15.30;7.90;;;;;;;21.82;91.78;99593.19;4963658;28;20039;-67
2023/06/27 02:52:24;;;;;;;12.73;8.00;;;;;;;21.82;90.99;99585.94;4970315;28;20035;-65
2023/06/27 02:54:50;;;;;;;15.90;9.05;;;;;;;21.74;90.87;99586.31;4964284;28;20058;-67
2023/06/27 02:57:15;;;;;;;14.75;9.45;;;;;;;21.71;91.56;99580.56;4966017;28;20244;-67
2023/06/27 02:59:41;;;;;;;13.48;8.88;;;;;;;21.68;92.44;99584.56;4964415;28;20046;-65
2023/06/27 03:02:06;;;;;;;14.55;9.45;;;;;;;21.80;92.28;99585.34;4967940;28;20050;-65
2023/06/27 03:04:32;;;;;;;13.93;8.70;;;;;;;21.81;89.37;99595.06;4965885;28;20039;-67
2023/06/27 03:06:57;;;;;;;8.52;5.97;;;;;;;21.82;88.56;99594.00;4965143;28;20042;-65
2023/06/27 03:09:22;;;;;;;10.23;7.30;;;;;;;21.63;89.57;99595.25;4961757;28;20759;-65
2023/06/27 03:11:48;;;;;;;14.30;8.45;;;;;;;21.69;89.43;99591.59;4962663;28;20047;-67
2023/06/27 03:14:17;;;;;;;12.60;8.65;;;;;;;21.77;89.62;99587.72;4961684;28;20043;-65
2023/06/27 03:16:43;;;;;;;16.20;8.80;;;;;;;21.75;90.66;99579.03;4971194;28;20284;-67
2023/06/27 03:19:08;;;;;;;12.82;9.30;;;;;;;21.79;91.52;99578.31;4963807;28;20035;-65
2023/06/27 03:21:34;;;;;;;15.00;8.73;;;;;;;21.80;90.27;99584.53;4962970;28;20042;-65
2023/06/27 03:23:59;;;;;;;14.80;10.10;;;;;;;21.69;91.46;99588.91;4961396;28;20031;-66
2023/06/27 03:26:27;;;;;;;19.05;11.15;;;;;;;21.54;92.66;99599.34;4962169;28;20383;-65
2023/06/27 03:28:54;;;;;;;13.38;9.25;;;;;;;21.42;94.43;99596.69;4961592;28;20337;-65
2023/06/27 03:31:20;;;;;;;14.25;8.68;;;;;;;21.38;96.26;99603.59;4963344;28;20043;-64
2023/06/27 03:33:46;;;;;;;11.45;8.73;;;;;;;21.39;97.31;99599.03;4962531;28;20375;-67
2023/06/27 03:36:12;;;;;;;11.88;8.45;;;;;;;21.42;97.76;99603.94;4963448;28;20059;-65
2023/06/27 03:38:37;;;;;;;10.40;7.50;;;;;;;21.19;100.00;99597.47;4961815;28;20047;-67
2023/06/27 03:41:03;;;;;;;9.27;7.22;;;;;;;21.30;100.00;99594.00;4962795;28;20086;-67
2023/06/27 03:43:28;;;;;;;8.13;6.32;;;;;;;21.46;100.00;99597.03;4962136;28;20034;-67
2023/06/27 03:45:53;;;;;;;9.70;6.90;;;;;;;21.54;99.91;99597.47;4962887;28;20038;-65
2023/06/27 03:48:19;;;;;;;8.10;6.40;;;;;;;21.53;100.00;99592.34;4966500;28;20047;-66
2023/06/27 03:50:44;;;;;;;12.05;7.35;;;;;;;21.65;99.74;99593.94;4964618;28;20042;-67
2023/06/27 03:53:10;;;;;;;11.07;7.78;;;;;;;21.78;99.53;99600.13;4968327;28;20039;-65
2023/06/27 03:55:37;;;;;;;9.95;6.93;;;;;;;21.83;99.37;99575.97;4963797;28;20046;-65
2023/06/27 03:58:03;;;;;;;9.45;7.38;;;;;;;21.97;98.81;99596.22;4962062;28;20078;-67
2023/06/27 04:00:29;;;;;;;9.73;6.80;;;;;;;22.05;98.89;99586.97;4962718;28;20225;-66
2023/06/27 04:02:54;;;;;;;10.82;7.03;;;;;;;22.08;98.51;99591.88;4966394;28;20043;-65
2023/06/27 04:05:20;;;;;;;9.75;7.07;;;;;;;22.14;98.18;99597.13;4965502;28;20051;-67
2023/06/27 04:07:46;;;;;;;11.75;8.20;;;;;;;22.06;98.10;99599.41;4965379;28;20335;-65
2023/06/27 04:10:11;;;;;;;14.32;7.38;;;;;;;21.99;98.56;99596.81;4962239;28;20110;-67
2023/06/27 04:12:37;;;;;;;12.60;7.30;;;;;;;22.03;98.84;99598.00;4964205;28;20035;-67
2023/06/27 04:15:03;;;;;;;12.70;7.10;;;;;;;22.01;98.08;99594.69;4965447;28;20336;-67
2023/06/27 04:17:28;;;;;;;12.52;6.57;;;;;;;22.14;98.00;99599.81;4965210;28;20063;-67
2023/06/27 04:19:54;;;;;;;9.98;6.82;;;;;;;22.41;97.69;99600.06;4963221;28;20043;-65
2023/06/27 04:22:19;;;;;;;11.93;6.72;;;;;;;22.46;95.37;99602.03;4961144;28;20495;-65
2023/06/27 04:24:45;;;;;;;12.25;7.25;;;;;;;22.47;95.40;99606.34;4965548;28;20047;-67
2023/06/27 04:27:10;;;;;;;10.32;7.50;;;;;;;22.66;95.12;99610.47;4961897;28;20043;-67
2023/06/27 04:29:37;;;;;;;11.27;6.90;;;;;;;22.96;93.76;99612.09;4962847;28;20042;-67
2023/06/27 04:32:03;;;;;;;11.48;6.78;;;;;;;23.22;92.66;99612.22;4960253;28;20106;-67
2023/06/27 04:34:28;;;;;;;8.55;6.22;;;;;;;23.39;91.22;99614.91;4962296;28;20209;-67
2023/06/27 04:36:54;;;;;;;12.07;7.05;;;;;;;23.51;89.96;99617.50;4962043;28;20047;-65
2023/06/27 04:39:19;;;;;;;11.35;6.32;;;;;;;23.54;89.66;99625.13;4961603;28;20415;-67
2023/06/27 04:41:45;;;;;;;8.50;6.28;;;;;;;23.70;88.71;99620.75;4961123;28;20035;-65
2023/06/27 04:44:10;;;;;;;11.98;9.38;;;;;;;23.78;90.26;99623.03;4962236;28;20038;-65
2023/06/27 04:46:36;;;;;;;9.35;7.53;;;;;;;23.90;89.62;99623.72;4960232;28;20037;-67
2023/06/27 04:49:02;;;;;;;9.80;6.65;;;;;;;23.95;88.53;99631.91;4964792;28;20031;-65
2023/06/27 04:51:28;;;;;;;12.88;7.30;;;;;;;24.13;87.53;99631.59;4962497;28;20047;-65
2023/06/27 04:53:55;;;;;;;10.43;7.07;;;;;;;24.30;86.23;99625.31;4960773;28;20367;-67
2023/06/27 04:56:20;;;;;;;12.60;7.10;;;;;;;24.57;85.92;99622.59;4962375;28;20343;-66
2023/06/27 04:58:46;;;;;;;11.93;6.32;;;;;;;24.72;84.85;99626.25;4961646;28;20058;-67
2023/06/27 05:01:11;;;;;;;10.88;6.95;;;;;;;24.96;84.47;99623.22;4963775;28;20106;-67
2023/06/27 05:03:37;;;;;;;9.80;6.82;;;;;;;25.06;82.70;99631.47;4963743;28;20038;-67
2023/06/27 05:06:06;;;;;;;10.93;6.82;;;;;;;25.21;81.35;99630.75;4961603;28;20114;-67
2023/06/27 05:08:32;;;;;;;12.27;7.35;;;;;;;25.25;81.87;99629.97;4962898;28;20098;-67
2023/06/27 05:10:58;;;;;;;12.70;7.45;;;;;;;25.17;82.62;99626.94;4964583;28;20054;-65
2023/06/27 05:13:23;;;;;;;9.48;6.55;;;;;;;25.30;80.53;99627.31;4964444;28;20027;-67
2023/06/27 05:15:49;;;;;;;9.02;6.85;;;;;;;25.29;81.37;99633.81;4972927;28;20047;-65
2023/06/27 05:18:15;;;;;;;11.20;7.03;;;;;;;25.36;80.92;99634.41;4966443;28;20042;-67
2023/06/27 05:20:43;;;;;;;13.35;7.72;;;;;;;25.63;81.31;99638.88;4964797;28;20050;-65
2023/06/27 05:23:09;;;;;;;11.35;6.55;;;;;;;25.66;79.07;99641.09;4963770;28;20118;-67
2023/06/27 05:25:34;;;;;;;9.57;6.93;;;;;;;25.62;79.29;99634.53;4965310;28;20585;-65
2023/06/27 05:28:00;;;;;;;10.80;6.72;;;;;;;25.85;78.12;99630.63;4971835;28;20039;-66
2023/06/27 05:30:27;;;;;;;8.27;6.28;;;;;;;25.84;75.86;99634.41;4978206;28;20039;-67
2023/06/27 05:32:53;;;;;;;9.05;6.03;;;;;;;25.76;76.48;99641.97;4963296;28;20087;-65
2023/06/27 05:35:18;;;;;;;8.43;6.43;;;;;;;25.62;76.75;99635.34;4964689;28;20226;-66
2023/06/27 05:37:43;;;;;;;10.70;7.25;;;;;;;25.71;77.98;99633.00;4967209;28;20027;-65
2023/06/27 05:40:09;;;;;;;11.25;6.70;;;;;;;26.07;76.70;99633.97;4965902;28;20321;-65
2023/06/27 05:42:36;;;;;;;10.65;6.70;;;;;;;25.90;75.83;99638.78;4968579;28;20264;-67
2023/06/27 05:45:02;;;;;;;10.32;7.28;;;;;;;26.27;75.54;99635.94;4967009;28;20318;-67
2023/06/27 05:47:27;;;;;;;10.52;6.10;;;;;;;26.36;74.33;99637.06;4964583;28;20043;-66
2023/06/27 05:49:53;;;;;;;8.63;6.80;;;;;;;26.63;73.85;99631.41;4970386;28;20351;-65
2023/06/27 05:52:18;;;;;;;9.52;5.90;;;;;;;26.84;71.90;99635.78;4966709;28;20031;-65
2023/06/27 05:54:44;;;;;;;9.57;6.13;;;;;;;27.02;70.48;99637.97;4968046;28;20042;-67
2023/06/27 05:57:10;;;;;;;8.65;6.18;;;;;;;26.99;71.76;99638.53;4964795;28;20236;-66
2023/06/27 05:59:35;;;;;;;7.15;6.20;;;;;;;26.87;71.84;99642.56;4963333;28;20151;-67
2023/06/27 06:02:01;;;;;;;8.82;6.35;;;;;;;27.01;71.76;99639.06;4963968;28;20039;-67
2023/06/27 06:04:26;;;;;;;9.00;6.40;;;;;;;27.18;70.19;99636.09;4965189;28;20045;-65
2023/06/27 06:06:52;;;;;;;9.18;5.70;;;;;;;27.49;70.20;99641.47;4966342;28;20051;-67
2023/06/27 06:09:17;;;;;;;8.55;6.25;;;;;;;27.61;69.99;99648.28;4966925;28;20039;-67
2023/06/27 06:11:44;;;;;;;8.93;6.10;;;;;;;27.55;67.15;99645.81;4965162;28;20039;-67
2023/06/27 06:14:09;;;;;;;8.77;6.05;;;;;;;27.79;66.20;99632.44;4962776;28;20070;-65
2023/06/27 06:16:35;;;;;;;9.40;6.05;;;;;;;27.79;65.08;99638.69;4981818;28;20050;-67
2023/06/27 06:19:00;;;;;;;8.20;6.07;;;;;;;27.70;66.40;99629.47;4980297;28;20039;-65
2023/06/27 06:21:30;;;;;;;8.73;5.95;;;;;;;27.85;64.59;99628.63;4979665;28;20042;-65
2023/06/27 06:23:56;;;;;;;9.45;6.90;;;;;;;27.84;64.76;99633.25;4981794;28;20109;-64
2023/06/27 06:26:22;;;;;;;7.88;6.05;;;;;;;27.97;65.07;99634.53;4985075;28;20069;-67
2023/06/27 06:28:47;;;;;;;8.82;5.55;;;;;;;27.99;64.46;99637.81;4979858;28;20345;-66
2023/06/27 06:31:16;;;;;;;6.68;4.90;;;;;;;28.07;63.06;99630.97;4980442;28;20224;-67
2023/06/27 06:33:45;;;;;;;6.63;5.40;;;;;;;27.99;64.51;99635.09;4982975;28;20038;-66
2023/06/27 06:36:11;;;;;;;8.43;5.80;;;;;;;28.09;64.11;99636.94;4982280;28;20264;-65
2023/06/27 06:38:36;;;;;;;5.43;4.90;;;;;;;28.38;62.31;99639.84;4979805;28;20147;-66
2023/06/27 06:41:02;;;;;;;6.07;5.40;;;;;;;28.31;61.09;99639.34;4980194;28;20055;-67
2023/06/27 06:43:28;;;;;;;10.52;5.47;;;;;;;28.52;60.77;99633.47;4979569;28;20440;-66
2023/06/27 06:45:53;;;;;;;6.40;5.18;;;;;;;28.82;60.70;99629.72;4979757;28;20050;-68
2023/06/27 06:48:19;;;;;;;6.50;5.22;;;;;;;28.76;59.76;99627.31;4982654;28;20038;-68
2023/06/27 06:50:45;;;;;;;6.90;5.45;;;;;;;28.77;60.12;99623.50;4983003;28;20035;-65
2023/06/27 06:53:11;;;;;;;7.40;5.75;;;;;;;28.80;60.15;99623.75;4980495;28;20066;-65
2023/06/27 06:55:36;;;;;;;6.75;4.43;;;;;;;28.76;59.05;99622.69;4990252;28;20320;-67
2023/06/27 06:58:02;;;;;;;7.00;5.45;;;;;;;29.01;57.93;99620.88;4982514;28;20031;-67
2023/06/27 07:00:27;;;;;;;8.50;5.20;;;;;;;28.91;58.91;99621.78;4978980;28;20034;-66
2023/06/27 07:02:54;;;;;;;6.40;5.03;;;;;;;29.12;58.29;99617.75;4978772;28;20228;-66
2023/06/27 07:05:19;;;;;;;5.50;4.60;;;;;;;29.36;56.97;99623.28;4978226;28;20211;-67
2023/06/27 07:07:45;;;;;;;8.23;5.43;;;;;;;29.40;56.04;99621.59;4978257;28;20309;-68
2023/06/27 07:10:10;;;;;;;6.53;4.95;;;;;;;29.70;55.68;99625.13;4982140;28;20038;-66
2023/06/27 07:12:36;;;;;;;6.63;4.93;;;;;;;29.91;54.57;99623.78;4979611;28;20039;-68
2023/06/27 07:15:01;;;;;;;5.82;4.85;;;;;;;30.04;54.14;99622.28;4978034;28;20050;-66
2023/06/27 07:17:26;;;;;;;6.82;4.80;;;;;;;30.08;54.40;99624.13;4979385;28;20181;-68
2023/06/27 07:19:53;;;;;;;6.43;5.03;;;;;;;30.29;54.10;99618.41;4979702;28;20035;-68
2023/06/27 07:22:19;;;;;;;7.47;4.65;;;;;;;30.33;53.02;99612.06;4980041;28;20080;-66
2023/06/27 07:24:44;;;;;;;6.53;4.38;;;;;;;30.64;52.30;99611.63;4980985;28;20039;-68
2023/06/27 07:27:10;;;;;;;6.70;4.85;;;;;;;30.81;51.78;99599.03;4977984;28;20031;-66
2023/06/27 07:29:36;;;;;;;8.18;5.25;;;;;;;30.86;50.43;99603.59;4977714;28;20045;-66
2023/06/27 07:32:02;;;;;;;5.53;5.00;;;;;;;30.82;50.70;99602.56;4980269;28;20331;-68
2023/06/27 07:34:27;;;;;;;6.22;5.30;;;;;;;30.86;52.02;99605.53;4978570;28;20074;-67
2023/06/27 07:36:52;;;;;;;5.20;4.65;;;;;;;31.02;49.28;99596.75;4980268;28;20034;-67
2023/06/27 07:39:18;;;;;;;6.57;4.90;;;;;;;31.01;51.20;99594.31;4977101;28;20287;-68
2023/06/27 07:41:43;;;;;;;7.78;4.90;;;;;;;31.09;50.66;99602.66;4978034;28;20065;-66
2023/06/27 07:44:09;;;;;;;6.32;4.57;;;;;;;31.26;48.39;99596.66;4977986;28;20356;-68
2023/06/27 07:46:34;;;;;;;5.45;4.28;;;;;;;31.55;47.87;99592.81;4978168;28;20965;-66
2023/06/27 07:49:00;;;;;;;6.10;5.22;;;;;;;31.65;48.04;99584.41;4977930;28;20042;-66
2023/06/27 07:51:27;;;;;;;6.03;4.80;;;;;;;31.65;47.90;99593.44;4976264;28;20053;-68
2023/06/27 07:53:52;;;;;;;5.90;4.53;;;;;;;31.71;47.47;99591.44;4977615;28;20022;-66
2023/06/27 07:56:19;;;;;;;5.63;4.82;;;;;;;31.87;44.80;99592.72;4977702;28;20041;-66
2023/06/27 07:58:44;;;;;;;5.82;4.35;;;;;;;32.02;45.19;99597.06;4977427;28;20045;-68
2023/06/27 08:01:10;;;;;;;5.22;4.72;;;;;;;31.94;44.30;99589.56;4977492;28;20036;-66
2023/06/27 08:03:36;;;;;;;5.72;4.25;;;;;;;31.93;43.37;99585.22;4977696;28;20066;-65
2023/06/27 08:06:04;;;;;;;4.93;4.38;;;;;;;31.85;43.82;99588.66;4977193;28;20062;-66
2023/06/27 08:08:30;;;;;;;8.45;4.65;;;;;;;32.23;42.60;99584.53;4977533;28;20034;-66
2023/06/27 08:10:56;;;;;;;5.53;3.80;;;;;;;32.40;43.00;99581.19;4977405;28;20336;-66
2023/06/27 08:13:22;;;;;;;4.90;3.83;;;;;;;32.55;41.04;99578.06;4977162;28;20105;-66
2023/06/27 08:15:48;;;;;;;5.18;3.88;;;;;;;32.20;40.82;99584.34;4977197;28;20068;-68
2023/06/27 08:18:13;;;;;;;5.53;3.42;;;;;;;32.33;38.12;99580.81;4977217;28;20039;-68
2023/06/27 08:20:38;;;;;;;5.97;3.97;;;;;;;32.46;38.91;99579.94;4977081;28;20034;-68
2023/06/27 08:23:04;;;;;;;3.70;3.40;;;;;;;32.75;38.85;99586.91;4977248;28;20070;-66
2023/06/27 08:25:29;;;;;;;4.35;3.47;;;;;;;32.82;38.75;99585.38;4977118;28;20053;-68
2023/06/27 08:27:55;;;;;;;4.57;3.50;;;;;;;32.93;36.15;99581.25;4977041;28;20033;-66
2023/06/27 08:30:20;;;;;;;4.82;3.30;;;;;;;32.88;37.67;99578.66;4976910;28;20240;-68
2023/06/27 08:32:46;;;;;;;3.72;3.10;;;;;;;32.66;35.85;99579.44;4972169;28;20026;-66
2023/06/27 08:35:11;;;;;;;3.88;2.72;;;;;;;32.83;35.70;99583.44;4972647;28;20337;-66
2023/06/27 08:37:37;;;;;;;3.75;3.08;;;;;;;32.96;35.11;99575.13;4972962;28;20034;-68
2023/06/27 08:40:03;;;;;;;3.58;3.05;;;;;;;33.10;35.83;99571.50;4974152;28;20252;-66
2023/06/27 08:42:32;;;;;;;4.07;2.80;;;;;;;32.92;35.65;99567.84;4973232;28;20035;-66
2023/06/27 08:44:59;;;;;;;3.67;3.33;;;;;;;33.05;36.69;99574.38;4975238;28;20064;-66
2023/06/27 08:47:27;;;;;;;4.40;3.33;;;;;;;32.84;36.19;99571.34;4977258;28;20069;-68
2023/06/27 08:50:01;;;;;;;3.75;3.22;;;;;;;32.92;34.06;99573.34;4976991;28;20039;-66
2023/06/27 08:52:28;;;;;;;3.65;2.80;;;;;;;32.68;33.20;99573.66;4976805;28;20352;-66
2023/06/27 08:54:55;;;;;;;5.82;3.55;;;;;;;32.82;34.72;99568.13;4975978;28;20336;-66
2023/06/27 08:57:25;;;;;;;3.15;2.83;;;;;;;32.32;33.64;99571.78;4977098;28;20046;-68
2023/06/27 08:59:51;;;;;;;4.18;3.50;;;;;;;31.72;35.51;99569.22;4976109;28;20217;-66
2023/06/27 09:02:17;;;;;;;4.80;3.08;;;;;;;31.76;37.48;99572.16;4976760;28;20090;-66
2023/06/27 09:04:45;;;;;;;4.18;3.47;;;;;;;31.06;37.82;99564.97;4976865;28;20110;-67
2023/06/27 09:07:11;;;;;;;5.75;3.45;;;;;;;31.30;36.94;99561.31;4975180;28;20038;-68
2023/06/27 09:09:37;;;;;;;4.35;3.40;;;;;;;31.21;37.69;99563.09;4975194;28;20035;-66
2023/06/27 09:12:03;;;;;;;5.00;3.10;;;;;;;31.47;35.57;99564.25;4975001;28;20244;-68
2023/06/27 09:14:29;;;;;;;6.05;3.83;;;;;;;31.26;36.00;99558.34;4976007;28;20046;-66
2023/06/27 09:16:54;;;;;;;3.85;3.35;;;;;;;31.14;36.17;99555.25;4976824;28;20362;-68
2023/06/27 09:19:21;;;;;;;4.45;3.03;;;;;;;30.47;38.35;99550.09;4977716;28;20849;-66
2023/06/27 09:21:48;;;;;;;7.20;3.35;;;;;;;30.73;36.61;99549.72;4976359;28;20035;-68
2023/06/27 09:24:14;;;;;;;3.67;2.92;;;;;;;31.21;38.61;99550.25;4976573;28;20038;-66
2023/06/27 09:26:40;;;;;;;3.83;3.10;;;;;;;31.42;36.97;99550.66;4975657;28;20049;-68
2023/06/27 09:29:06;;;;;;;3.80;3.05;;;;;;;31.47;36.51;99541.53;4976849;28;20047;-66
2023/06/27 09:31:33;;;;;;;3.20;2.90;;;;;;;31.52;37.06;99544.97;4973656;28;20053;-68
2023/06/27 09:34:11;;;;;;;4.90;3.25;;;;;;;31.61;36.96;99550.56;4975250;28;20396;-66
2023/06/27 09:36:39;;;;;;;4.55;3.10;;;;;;;31.61;37.02;99547.81;4980242;28;20058;-66
2023/06/27 09:39:15;;;;;;;4.10;3.08;;;;;;;31.66;36.34;99545.78;4979973;28;20324;-68
2023/06/27 09:41:42;;;;;;;3.15;2.80;;;;;;;31.51;36.01;99546.09;4979472;28;20049;-67
2023/06/27 09:44:12;;;;;;;3.05;2.75;;;;;;;31.59;32.74;99548.13;4980234;28;20076;-68
2023/06/27 09:46:38;;;;;;;4.13;3.20;;;;;;;31.57;33.67;99542.13;4979878;28;20034;-68
2023/06/27 09:49:06;;;;;;;3.00;2.70;;;;;;;31.37;33.45;99546.09;4979900;28;20193;-68
2023/06/27 09:51:32;;;;;;;3.35;2.67;;;;;;;31.33;36.79;99539.63;4979768;28;20317;-67
2023/06/27 09:53:58;;;;;;;3.00;2.70;;;;;;;31.39;35.41;99543.06;4979441;28;20255;-68
2023/06/27 09:56:31;;;;;;;3.35;2.65;;;;;;;31.38;36.80;99536.78;4978590;28;20128;-67
2023/06/27 09:59:06;;;;;;;5.53;3.10;;;;;;;31.46;37.69;99542.66;4979809;28;20031;-68
2023/06/27 10:01:31;;;;;;;4.88;3.42;;;;;;;31.55;35.60;99540.81;4979874;28;20080;-68
2023/06/27 10:03:57;;;;;;;5.30;3.75;;;;;;;31.52;35.24;99533.22;4979475;28;20260;-68
2023/06/27 10:06:22;;;;;;;2.92;2.25;;;;;;;31.42;35.02;99537.78;4979465;28;20046;-68
2023/06/27 10:08:48;;;;;;;3.17;2.80;;;;;;;31.36;35.71;99540.94;4979706;28;20065;-66
2023/06/27 10:11:13;;;;;;;4.55;3.13;;;;;;;31.44;35.92;99541.03;4979273;28;20039;-67
2023/06/27 10:13:40;;;;;;;4.13;2.80;;;;;;;31.37;33.74;99539.81;4979555;28;20046;-68
2023/06/27 10:16:06;;;;;;;3.58;3.28;;;;;;;31.18;34.86;99533.59;4979475;28;20046;-68
2023/06/27 10:18:31;;;;;;;3.88;3.47;;;;;;;30.76;36.03;99540.91;4978865;28;20030;-66
2023/06/27 10:20:57;;;;;;;3.20;2.90;;;;;;;30.78;36.93;99531.28;4979377;28;20093;-66
2023/06/27 10:23:24;;;;;;;3.17;2.88;;;;;;;30.83;37.77;99526.84;4979138;28;20045;-68
2023/06/27 10:25:49;;;;;;;3.75;2.90;;;;;;;31.07;34.68;99525.56;4978923;28;20034;-67
2023/06/27 10:28:15;;;;;;;4.13;2.65;;;;;;;31.18;32.62;99526.22;4978916;28;20239;-68
2023/06/27 10:30:46;;;;;;;4.00;2.50;;;;;;;31.06;33.80;99520.41;4979043;28;20035;-68
2023/06/27 10:33:31;;;;;;;2.90;2.58;;;;;;;30.96;34.96;99510.47;4977112;28;20053;-68
2023/06/27 10:36:05;;;;;;;3.05;2.72;;;;;;;30.93;35.00;99505.59;4987602;28;20355;-66
2023/06/27 10:38:39;;;;;;;3.55;2.83;;;;;;;31.09;35.67;99512.41;4978923;28;20027;-68
2023/06/27 10:41:06;;;;;;;3.38;2.45;;;;;;;31.23;34.75;99508.91;4979002;28;20041;-68
2023/06/27 10:43:35;;;;;;;8.32;2.75;;;;;;;31.38;33.83;99508.59;4978918;28;20054;-67
2023/06/27 10:46:27;;;;;;;3.17;2.55;;;;;;;31.38;33.92;99503.94;4979097;28;20366;-66
2023/06/27 10:48:58;;;;;;;3.40;2.35;;;;;;;31.44;32.76;99499.19;4979807;28;20065;-66
2023/06/27 10:51:34;;;;;;;2.80;2.03;;;;;;;31.41;31.90;99500.59;4979804;28;20035;-68
2023/06/27 10:54:08;;;;;;;2.58;2.38;;;;;;;31.28;30.87;99495.94;4979057;28;20038;-67
2023/06/27 10:56:43;;;;;;;3.90;2.70;;;;;;;31.18;32.28;99498.06;4979791;28;20281;-68
2023/06/27 10:59:19;;;;;;;3.03;2.65;;;;;;;30.98;35.07;99494.56;4979930;28;20034;-67
2023/06/27 11:01:52;;;;;;;3.30;2.40;;;;;;;30.93;32.22;99491.13;4980065;28;20043;-68
2023/06/27 11:04:26;;;;;;;2.80;2.50;;;;;;;30.91;34.67;99490.63;4979837;28;20320;-68
2023/06/27 11:07:01;;;;;;;3.45;2.92;;;;;;;30.74;33.25;99500.22;4986755;28;20047;-66
2023/06/27 11:09:29;;;;;;;2.97;2.70;;;;;;;30.68;33.94;99481.47;4979279;28;20058;-67
2023/06/27 11:12:06;;;;;;;2.85;2.58;;;;;;;30.63;34.50;99482.38;4979502;28;20041;-68
2023/06/27 11:14:38;;;;;;;3.55;3.25;;;;;;;30.72;35.97;99474.28;4978698;28;20047;-65
2023/06/27 11:17:04;;;;;;;4.32;2.90;;;;;;;30.72;35.02;99479.75;4978157;28;20043;-66
2023/06/27 11:19:38;;;;;;;3.45;2.67;;;;;;;30.66;36.28;99475.50;4978756;28;20206;-67
2023/06/27 11:22:04;;;;;;;3.47;2.90;;;;;;;30.64;33.22;99484.00;4978682;28;20042;-66
2023/06/27 11:24:29;;;;;;;4.07;3.25;;;;;;;30.53;35.28;99478.97;4978907;28;20379;-68
2023/06/27 11:26:56;;;;;;;3.58;3.15;;;;;;;30.58;34.50;99470.69;4978989;28;20110;-67
2023/06/27 11:29:22;;;;;;;3.08;2.78;;;;;;;30.63;34.70;99467.91;4979067;28;20089;-68